Terminal Aerodrome Forecast
Issued by NWS

Home | Current Version | Previous Version | Text Only | Print | Product List | Glossary On
Versions: 1 2 3 4 5 6 7 8 9 10 11 12 13 14 15 16 17
000
FTUS45 KSLC 171732 AAA
TAFENV
TAF AMD
KENV 171732Z 1718/1818 15010KT P6SM FEW100
     FM180300 VRB05KT P6SM BKN120
     FM180900 34010KT P6SM BKN100
      AMD LTD TO CLD VIS AND WIND=

USA.gov is the U.S. government's official web portal to all federal, state and local government web resources and services.